This is the latest recevied weather packets stored in our database for station/object KC9ZAR-13. If no packets are shown the sender has not sent any weather packets the latest 10 day(s).
| Time | Temp. | Humidity | Pressure | Rain* | Wind** | Luminosity | Snow |
|---|---|---|---|---|---|---|---|
| 1777943706 | 22.78° C | 47% | 1002.6 hPa | 0 mm | - | 0 W/m² | - |
| 1777936506 | 24.44° C | 46% | 1002.4 hPa | 0 mm | - | 0 W/m² | - |
| 1777930506 | 24.44° C | 48% | 1003.7 hPa | 0 mm | - | 0 W/m² | - |
| 1777928106 | 25° C | 48% | 1004.7 hPa | 0 mm | - | 0 W/m² | - |
| 1777926006 | 24.44° C | 46% | 1005.1 hPa | 0 mm | - | 0 W/m² | - |
| 1777925406 | 25° C | 46% | 1004.9 hPa | 0 mm | - | 0 W/m² | - |
| 1777923905 | 25° C | 44% | 1004.7 hPa | 0 mm | - | 0 W/m² | - |
| 1777923305 | 25.56° C | 42% | 1004.6 hPa | 0 mm | - | 0 W/m² | - |
| 1777922405 | 26.11° C | 43% | 1004.5 hPa | 0 mm | - | 0 W/m² | - |
| 1777920605 | 26.67° C | 44% | 1004.9 hPa | 0 mm | - | 0 W/m² | - |
| 1777920306 | 26.11° C | 44% | 1005.1 hPa | 0 mm | - | 0 W/m² | - |
| 1777920005 | 26.11° C | 47% | 1005.1 hPa | 0 mm | - | 0 W/m² | - |
| 1777919105 | 26.11° C | 48% | 1005.3 hPa | 0 mm | - | 0 W/m² | - |
| 1777918206 | 26.11° C | 51% | 1005.6 hPa | 0 mm | - | 0 W/m² | - |
| 1777915206 | 24.44° C | 54% | 1006 hPa | 0 mm | - | 0 W/m² | - |
| 1777909505 | 21.11° C | 64% | 1006.2 hPa | 0 mm | - | 0 W/m² | - |
| 1777906805 | 20° C | 66% | 1006.6 hPa | 0 mm | - | 0 W/m² | - |
| 1777906505 | 20° C | 66% | 1006.6 hPa | 0 mm | - | 0 W/m² | - |
| 1777906205 | 20° C | 68% | 1006.8 hPa | 0 mm | - | 0 W/m² | - |
| 1777904705 | 18.33° C | 70% | 1007 hPa | 0 mm | - | 0 W/m² | - |
| 1777904405 | 18.33° C | 72% | 1007 hPa | 0 mm | - | 0 W/m² | - |
| 1777903505 | 17.78° C | 76% | 1007.1 hPa | 0 mm | - | 0 W/m² | - |
| 1777903205 | 17.22° C | 77% | 1007.1 hPa | 0 mm | - | 0 W/m² | - |
| 1777899905 | 15° C | 88% | 1007.4 hPa | 0 mm | - | 0 W/m² | - |
| 1777894506 | 13.89° C | 90% | 1007.2 hPa | 0.76 mm | - | 0 W/m² | - |
* Rain latest hour (hover to see other rain measurements)
** Current wind speed in m/s (hover to see current wind gust speed)